KJHN

Stanton County Municipal Airport

Johnson, Kansas, USA
METAR KJHN 172115Z AUTO 03005G14KT 10SM CLR 14/M14 A3011 RMK AO2 T01351137
Observed Flight Rules
Feb-17 @ 21:15 UTC (22 minutes ago) Visual Flight Rules
Wind Visibility Clouds
30° at 5 knots
 Gusting to 14 knots
10 miles
  • Clear skies
Temperatures Readings
Current 14°C / 57°F
Dewpoint -14°C / 7°F
Humidity 13%
Altimeter 30.11" Hg
Pressure 1020 hPa
Elevation 1013
METAR KJHN 172115Z AUTO 03005G14KT 10SM CLR 14/M14 A3011 RMK AO2 T01351137
Observed Flight Rules
Feb-17 @ 21:15 UTC
(22 minutes ago)
VFR
Wind Visibility
30° at 5 knots
 Gusting to 14 knots
10 miles
Clouds
  • Clear skies
Temperature Dewpoint
14°C / 57°F -14°C / 7°F
Humidity Altimeter Pressure
13% 30.11" Hg 1020 hPa